sensor_id;sensor_type;location;lat;lon;timestamp;P1;durP1;ratioP1;P2;durP2;ratioP2
1839;SDS011;920;48.944;9.148;2023-03-04T00:01:19;26.70;;;17.77;;
1839;SDS011;920;48.944;9.148;2023-03-04T00:03:46;28.47;;;16.50;;
1839;SDS011;920;48.944;9.148;2023-03-04T00:06:12;28.37;;;18.57;;
1839;SDS011;920;48.944;9.148;2023-03-04T00:08:41;30.90;;;18.30;;
1839;SDS011;920;48.944;9.148;2023-03-04T00:11:07;32.27;;;18.73;;
1839;SDS011;920;48.944;9.148;2023-03-04T00:13:34;31.00;;;19.73;;
1839;SDS011;920;48.944;9.148;2023-03-04T00:16:01;31.00;;;18.90;;
1839;SDS011;920;48.944;9.148;2023-03-04T00:18:27;31.57;;;19.37;;
1839;SDS011;920;48.944;9.148;2023-03-04T00:20:54;28.23;;;18.23;;
1839;SDS011;920;48.944;9.148;2023-03-04T00:23:21;30.73;;;20.10;;
1839;SDS011;920;48.944;9.148;2023-03-04T00:25:49;27.60;;;17.00;;
1839;SDS011;920;48.944;9.148;2023-03-04T00:28:15;27.53;;;18.57;;
1839;SDS011;920;48.944;9.148;2023-03-04T00:30:42;28.60;;;19.20;;
1839;SDS011;920;48.944;9.148;2023-03-04T00:33:09;33.03;;;18.83;;
1839;SDS011;920;48.944;9.148;2023-03-04T00:35:36;29.17;;;18.43;;
1839;SDS011;920;48.944;9.148;2023-03-04T00:38:02;29.97;;;19.20;;
1839;SDS011;920;48.944;9.148;2023-03-04T00:40:29;34.67;;;19.07;;
1839;SDS011;920;48.944;9.148;2023-03-04T00:42:57;29.37;;;18.47;;
1839;SDS011;920;48.944;9.148;2023-03-04T00:45:24;32.43;;;20.97;;
1839;SDS011;920;48.944;9.148;2023-03-04T00:47:51;31.20;;;19.50;;
1839;SDS011;920;48.944;9.148;2023-03-04T00:50:18;31.47;;;19.60;;
1839;SDS011;920;48.944;9.148;2023-03-04T00:52:44;27.57;;;18.77;;
1839;SDS011;920;48.944;9.148;2023-03-04T00:55:11;27.50;;;18.17;;
1839;SDS011;920;48.944;9.148;2023-03-04T00:57:38;25.40;;;15.77;;
1839;SDS011;920;48.944;9.148;2023-03-04T01:00:09;32.60;;;17.93;;
1839;SDS011;920;48.944;9.148;2023-03-04T01:02:37;27.60;;;18.03;;
1839;SDS011;920;48.944;9.148;2023-03-04T01:05:04;25.90;;;17.13;;
1839;SDS011;920;48.944;9.148;2023-03-04T01:07:32;28.57;;;16.70;;
1839;SDS011;920;48.944;9.148;2023-03-04T01:09:59;28.37;;;17.63;;
1839;SDS011;920;48.944;9.148;2023-03-04T01:12:26;23.97;;;16.17;;
1839;SDS011;920;48.944;9.148;2023-03-04T01:14:53;26.83;;;17.07;;
1839;SDS011;920;48.944;9.148;2023-03-04T01:17:21;23.90;;;16.07;;
1839;SDS011;920;48.944;9.148;2023-03-04T01:19:48;26.33;;;16.77;;
1839;SDS011;920;48.944;9.148;2023-03-04T01:22:14;27.27;;;18.00;;
1839;SDS011;920;48.944;9.148;2023-03-04T01:24:43;29.40;;;18.50;;
1839;SDS011;920;48.944;9.148;2023-03-04T01:27:10;30.67;;;18.93;;
1839;SDS011;920;48.944;9.148;2023-03-04T01:29:36;30.60;;;19.17;;
1839;SDS011;920;48.944;9.148;2023-03-04T01:32:03;29.67;;;18.63;;
1839;SDS011;920;48.944;9.148;2023-03-04T01:34:32;26.33;;;17.30;;
1839;SDS011;920;48.944;9.148;2023-03-04T01:36:58;24.87;;;16.10;;
1839;SDS011;920;48.944;9.148;2023-03-04T01:39:26;26.13;;;16.27;;
1839;SDS011;920;48.944;9.148;2023-03-04T01:41:53;26.10;;;15.73;;
1839;SDS011;920;48.944;9.148;2023-03-04T01:44:19;28.13;;;17.97;;
1839;SDS011;920;48.944;9.148;2023-03-04T01:46:47;30.83;;;17.60;;
1839;SDS011;920;48.944;9.148;2023-03-04T01:49:15;29.63;;;16.57;;
1839;SDS011;920;48.944;9.148;2023-03-04T01:51:45;25.60;;;16.63;;
1839;SDS011;920;48.944;9.148;2023-03-04T01:54:14;27.17;;;16.67;;
1839;SDS011;920;48.944;9.148;2023-03-04T01:56:42;24.57;;;15.87;;
1839;SDS011;920;48.944;9.148;2023-03-04T01:59:11;24.07;;;15.43;;
1839;SDS011;920;48.944;9.148;2023-03-04T02:01:39;25.50;;;15.97;;
1839;SDS011;920;48.944;9.148;2023-03-04T02:04:07;24.07;;;15.23;;
1839;SDS011;920;48.944;9.148;2023-03-04T02:06:34;25.33;;;16.53;;
1839;SDS011;920;48.944;9.148;2023-03-04T02:09:04;26.13;;;15.80;;
1839;SDS011;920;48.944;9.148;2023-03-04T02:11:31;26.10;;;15.07;;
1839;SDS011;920;48.944;9.148;2023-03-04T02:13:58;24.57;;;15.60;;
1839;SDS011;920;48.944;9.148;2023-03-04T02:16:25;26.57;;;15.73;;
1839;SDS011;920;48.944;9.148;2023-03-04T02:18:52;24.90;;;14.00;;
1839;SDS011;920;48.944;9.148;2023-03-04T02:21:20;25.17;;;14.83;;
1839;SDS011;920;48.944;9.148;2023-03-04T02:23:51;23.60;;;14.70;;
1839;SDS011;920;48.944;9.148;2023-03-04T02:26:25;21.90;;;13.60;;
1839;SDS011;920;48.944;9.148;2023-03-04T02:28:54;21.97;;;12.93;;
1839;SDS011;920;48.944;9.148;2023-03-04T02:31:23;19.73;;;12.90;;
1839;SDS011;920;48.944;9.148;2023-03-04T02:33:52;23.80;;;14.13;;
1839;SDS011;920;48.944;9.148;2023-03-04T02:36:20;21.37;;;13.87;;
1839;SDS011;920;48.944;9.148;2023-03-04T02:38:48;24.27;;;13.87;;
1839;SDS011;920;48.944;9.148;2023-03-04T02:41:15;21.87;;;12.90;;
1839;SDS011;920;48.944;9.148;2023-03-04T02:43:46;22.03;;;13.97;;
1839;SDS011;920;48.944;9.148;2023-03-04T02:46:16;20.63;;;13.77;;
1839;SDS011;920;48.944;9.148;2023-03-04T02:48:43;27.07;;;13.90;;
1839;SDS011;920;48.944;9.148;2023-03-04T02:51:09;23.03;;;14.30;;
1839;SDS011;920;48.944;9.148;2023-03-04T02:53:36;22.13;;;13.23;;
1839;SDS011;920;48.944;9.148;2023-03-04T02:56:03;25.40;;;14.37;;
1839;SDS011;920;48.944;9.148;2023-03-04T02:58:34;18.67;;;12.13;;
1839;SDS011;920;48.944;9.148;2023-03-04T03:01:04;21.40;;;12.50;;
1839;SDS011;920;48.944;9.148;2023-03-04T03:03:31;21.83;;;12.30;;
1839;SDS011;920;48.944;9.148;2023-03-04T03:05:58;22.57;;;13.70;;
1839;SDS011;920;48.944;9.148;2023-03-04T03:08:25;25.07;;;13.10;;
1839;SDS011;920;48.944;9.148;2023-03-04T03:10:53;20.13;;;12.83;;
1839;SDS011;920;48.944;9.148;2023-03-04T03:13:21;20.27;;;12.40;;
1839;SDS011;920;48.944;9.148;2023-03-04T03:15:49;20.73;;;12.30;;
1839;SDS011;920;48.944;9.148;2023-03-04T03:18:17;21.57;;;12.67;;
1839;SDS011;920;48.944;9.148;2023-03-04T03:20:44;18.70;;;11.70;;
1839;SDS011;920;48.944;9.148;2023-03-04T03:23:10;21.03;;;12.57;;
1839;SDS011;920;48.944;9.148;2023-03-04T03:25:37;20.00;;;12.00;;
1839;SDS011;920;48.944;9.148;2023-03-04T03:28:04;23.37;;;12.83;;
1839;SDS011;920;48.944;9.148;2023-03-04T03:30:31;20.43;;;12.13;;
1839;SDS011;920;48.944;9.148;2023-03-04T03:32:58;21.77;;;12.60;;
1839;SDS011;920;48.944;9.148;2023-03-04T03:35:26;23.23;;;12.80;;
1839;SDS011;920;48.944;9.148;2023-03-04T03:37:53;20.93;;;12.67;;
1839;SDS011;920;48.944;9.148;2023-03-04T03:40:20;21.93;;;13.47;;
1839;SDS011;920;48.944;9.148;2023-03-04T03:42:46;22.03;;;12.77;;
1839;SDS011;920;48.944;9.148;2023-03-04T03:45:13;19.70;;;12.50;;
1839;SDS011;920;48.944;9.148;2023-03-04T03:47:40;21.90;;;12.47;;
1839;SDS011;920;48.944;9.148;2023-03-04T03:50:07;22.10;;;12.80;;
1839;SDS011;920;48.944;9.148;2023-03-04T03:52:36;19.63;;;12.53;;
1839;SDS011;920;48.944;9.148;2023-03-04T03:55:03;28.47;;;14.97;;
1839;SDS011;920;48.944;9.148;2023-03-04T03:57:30;24.60;;;13.57;;
1839;SDS011;920;48.944;9.148;2023-03-04T03:59:56;24.80;;;13.90;;
1839;SDS011;920;48.944;9.148;2023-03-04T04:02:23;22.77;;;13.13;;
1839;SDS011;920;48.944;9.148;2023-03-04T04:04:50;23.10;;;13.20;;
1839;SDS011;920;48.944;9.148;2023-03-04T04:07:16;24.00;;;13.60;;
1839;SDS011;920;48.944;9.148;2023-03-04T04:09:44;26.40;;;13.43;;
1839;SDS011;920;48.944;9.148;2023-03-04T04:12:12;24.17;;;13.60;;
1839;SDS011;920;48.944;9.148;2023-03-04T04:14:39;25.70;;;15.70;;
1839;SDS011;920;48.944;9.148;2023-03-04T04:17:06;22.90;;;14.37;;
1839;SDS011;920;48.944;9.148;2023-03-04T04:19:33;25.70;;;14.87;;
1839;SDS011;920;48.944;9.148;2023-03-04T04:22:00;25.50;;;14.53;;
1839;SDS011;920;48.944;9.148;2023-03-04T04:24:27;23.13;;;14.20;;
1839;SDS011;920;48.944;9.148;2023-03-04T04:26:55;22.97;;;13.50;;
1839;SDS011;920;48.944;9.148;2023-03-04T04:29:22;25.63;;;14.03;;
1839;SDS011;920;48.944;9.148;2023-03-04T04:31:49;21.43;;;13.10;;
1839;SDS011;920;48.944;9.148;2023-03-04T04:34:16;28.53;;;15.30;;
1839;SDS011;920;48.944;9.148;2023-03-04T04:36:43;26.37;;;14.87;;
1839;SDS011;920;48.944;9.148;2023-03-04T04:39:10;22.70;;;13.20;;
1839;SDS011;920;48.944;9.148;2023-03-04T04:41:37;25.27;;;14.77;;
1839;SDS011;920;48.944;9.148;2023-03-04T04:44:06;23.40;;;13.53;;
1839;SDS011;920;48.944;9.148;2023-03-04T04:46:33;24.27;;;14.23;;
1839;SDS011;920;48.944;9.148;2023-03-04T04:49:00;29.17;;;14.70;;
1839;SDS011;920;48.944;9.148;2023-03-04T04:51:27;23.93;;;13.17;;
1839;SDS011;920;48.944;9.148;2023-03-04T04:53:54;27.63;;;15.40;;
1839;SDS011;920;48.944;9.148;2023-03-04T04:56:22;23.00;;;14.43;;
1839;SDS011;920;48.944;9.148;2023-03-04T04:58:51;26.57;;;16.17;;
1839;SDS011;920;48.944;9.148;2023-03-04T05:01:19;24.57;;;14.20;;
1839;SDS011;920;48.944;9.148;2023-03-04T05:03:46;28.43;;;15.40;;
1839;SDS011;920;48.944;9.148;2023-03-04T05:06:15;27.03;;;15.80;;
1839;SDS011;920;48.944;9.148;2023-03-04T05:08:41;25.23;;;14.00;;
1839;SDS011;920;48.944;9.148;2023-03-04T05:11:08;27.63;;;14.77;;
1839;SDS011;920;48.944;9.148;2023-03-04T05:13:35;24.77;;;14.37;;
1839;SDS011;920;48.944;9.148;2023-03-04T05:16:02;30.33;;;14.43;;
1839;SDS011;920;48.944;9.148;2023-03-04T05:18:30;29.40;;;15.17;;
1839;SDS011;920;48.944;9.148;2023-03-04T05:20:57;27.00;;;15.63;;
1839;SDS011;920;48.944;9.148;2023-03-04T05:23:26;34.57;;;16.80;;
1839;SDS011;920;48.944;9.148;2023-03-04T05:25:53;25.90;;;13.73;;
1839;SDS011;920;48.944;9.148;2023-03-04T05:28:21;27.70;;;15.20;;
1839;SDS011;920;48.944;9.148;2023-03-04T05:30:47;30.27;;;15.37;;
1839;SDS011;920;48.944;9.148;2023-03-04T05:33:15;28.63;;;15.20;;
1839;SDS011;920;48.944;9.148;2023-03-04T05:35:44;25.47;;;13.53;;
1839;SDS011;920;48.944;9.148;2023-03-04T05:38:13;28.27;;;14.63;;
1839;SDS011;920;48.944;9.148;2023-03-04T05:40:40;24.43;;;15.00;;
1839;SDS011;920;48.944;9.148;2023-03-04T05:43:08;30.37;;;16.20;;
1839;SDS011;920;48.944;9.148;2023-03-04T05:45:35;26.27;;;14.57;;
1839;SDS011;920;48.944;9.148;2023-03-04T05:48:02;26.70;;;16.23;;
1839;SDS011;920;48.944;9.148;2023-03-04T05:50:29;28.67;;;15.03;;
1839;SDS011;920;48.944;9.148;2023-03-04T05:52:57;27.10;;;15.73;;
1839;SDS011;920;48.944;9.148;2023-03-04T05:55:25;26.97;;;14.40;;
1839;SDS011;920;48.944;9.148;2023-03-04T05:57:54;30.60;;;16.00;;
1839;SDS011;920;48.944;9.148;2023-03-04T06:00:21;25.30;;;13.80;;
1839;SDS011;920;48.944;9.148;2023-03-04T06:02:48;25.50;;;13.87;;
1839;SDS011;920;48.944;9.148;2023-03-04T06:05:15;23.07;;;13.10;;
1839;SDS011;920;48.944;9.148;2023-03-04T06:07:42;27.27;;;13.73;;
1839;SDS011;920;48.944;9.148;2023-03-04T06:10:12;28.10;;;14.30;;
1839;SDS011;920;48.944;9.148;2023-03-04T06:12:40;28.50;;;15.40;;
1839;SDS011;920;48.944;9.148;2023-03-04T06:15:07;26.70;;;13.90;;
1839;SDS011;920;48.944;9.148;2023-03-04T06:17:35;26.17;;;14.17;;
1839;SDS011;920;48.944;9.148;2023-03-04T06:20:03;30.30;;;16.17;;
1839;SDS011;920;48.944;9.148;2023-03-04T06:22:31;26.80;;;15.70;;
1839;SDS011;920;48.944;9.148;2023-03-04T06:24:58;28.47;;;15.73;;
1839;SDS011;920;48.944;9.148;2023-03-04T06:27:26;33.83;;;16.77;;
1839;SDS011;920;48.944;9.148;2023-03-04T06:29:53;31.57;;;16.17;;
1839;SDS011;920;48.944;9.148;2023-03-04T06:32:20;30.57;;;16.43;;
1839;SDS011;920;48.944;9.148;2023-03-04T06:34:47;28.03;;;16.20;;
1839;SDS011;920;48.944;9.148;2023-03-04T06:37:14;31.50;;;16.97;;
1839;SDS011;920;48.944;9.148;2023-03-04T06:39:40;31.27;;;17.03;;
1839;SDS011;920;48.944;9.148;2023-03-04T06:42:07;29.87;;;15.70;;
1839;SDS011;920;48.944;9.148;2023-03-04T06:44:35;31.17;;;16.33;;
1839;SDS011;920;48.944;9.148;2023-03-04T06:47:02;29.90;;;16.27;;
1839;SDS011;920;48.944;9.148;2023-03-04T06:49:29;33.00;;;16.47;;
1839;SDS011;920;48.944;9.148;2023-03-04T06:51:55;29.90;;;16.63;;
1839;SDS011;920;48.944;9.148;2023-03-04T06:54:22;26.90;;;15.97;;
1839;SDS011;920;48.944;9.148;2023-03-04T06:56:49;28.00;;;16.20;;
1839;SDS011;920;48.944;9.148;2023-03-04T06:59:16;26.57;;;16.23;;
1839;SDS011;920;48.944;9.148;2023-03-04T07:01:44;26.23;;;16.00;;
1839;SDS011;920;48.944;9.148;2023-03-04T07:04:10;27.90;;;15.30;;
1839;SDS011;920;48.944;9.148;2023-03-04T07:06:39;28.03;;;15.20;;
1839;SDS011;920;48.944;9.148;2023-03-04T07:09:05;30.40;;;16.73;;
1839;SDS011;920;48.944;9.148;2023-03-04T07:11:32;33.40;;;17.47;;
1839;SDS011;920;48.944;9.148;2023-03-04T07:13:59;29.53;;;16.23;;
1839;SDS011;920;48.944;9.148;2023-03-04T07:16:26;29.60;;;16.50;;
1839;SDS011;920;48.944;9.148;2023-03-04T07:18:54;27.10;;;15.87;;
1839;SDS011;920;48.944;9.148;2023-03-04T07:21:20;33.03;;;16.70;;
1839;SDS011;920;48.944;9.148;2023-03-04T07:23:47;30.07;;;16.10;;
1839;SDS011;920;48.944;9.148;2023-03-04T07:26:14;27.00;;;14.70;;
1839;SDS011;920;48.944;9.148;2023-03-04T07:28:41;28.33;;;14.87;;
1839;SDS011;920;48.944;9.148;2023-03-04T07:31:12;25.77;;;13.80;;
1839;SDS011;920;48.944;9.148;2023-03-04T07:33:43;26.40;;;14.60;;
1839;SDS011;920;48.944;9.148;2023-03-04T07:36:11;27.43;;;14.77;;
1839;SDS011;920;48.944;9.148;2023-03-04T07:38:41;29.63;;;16.60;;
1839;SDS011;920;48.944;9.148;2023-03-04T07:41:08;28.90;;;16.53;;
1839;SDS011;920;48.944;9.148;2023-03-04T07:43:35;27.47;;;14.50;;
1839;SDS011;920;48.944;9.148;2023-03-04T07:46:02;26.90;;;14.57;;
1839;SDS011;920;48.944;9.148;2023-03-04T07:48:29;22.50;;;13.63;;
1839;SDS011;920;48.944;9.148;2023-03-04T07:51:05;29.20;;;15.73;;
1839;SDS011;920;48.944;9.148;2023-03-04T07:53:35;29.77;;;16.60;;
1839;SDS011;920;48.944;9.148;2023-03-04T07:56:03;25.00;;;14.30;;
1839;SDS011;920;48.944;9.148;2023-03-04T07:58:30;26.60;;;14.03;;
1839;SDS011;920;48.944;9.148;2023-03-04T08:00:57;27.63;;;14.53;;
1839;SDS011;920;48.944;9.148;2023-03-04T08:03:24;36.83;;;21.60;;
1839;SDS011;920;48.944;9.148;2023-03-04T08:05:51;28.33;;;16.07;;
1839;SDS011;920;48.944;9.148;2023-03-04T08:08:18;26.57;;;15.57;;
1839;SDS011;920;48.944;9.148;2023-03-04T08:10:46;31.77;;;16.60;;
1839;SDS011;920;48.944;9.148;2023-03-04T08:13:13;24.93;;;14.53;;
1839;SDS011;920;48.944;9.148;2023-03-04T08:15:40;26.87;;;15.47;;
1839;SDS011;920;48.944;9.148;2023-03-04T08:18:07;31.67;;;17.80;;
1839;SDS011;920;48.944;9.148;2023-03-04T08:20:34;26.93;;;16.20;;
1839;SDS011;920;48.944;9.148;2023-03-04T08:23:01;30.20;;;18.40;;
1839;SDS011;920;48.944;9.148;2023-03-04T08:25:28;31.43;;;17.03;;
1839;SDS011;920;48.944;9.148;2023-03-04T08:27:56;27.17;;;15.67;;
1839;SDS011;920;48.944;9.148;2023-03-04T08:30:23;27.93;;;17.00;;
1839;SDS011;920;48.944;9.148;2023-03-04T08:32:50;26.47;;;15.37;;
1839;SDS011;920;48.944;9.148;2023-03-04T08:35:17;27.70;;;16.03;;
1839;SDS011;920;48.944;9.148;2023-03-04T08:37:43;27.93;;;15.30;;
1839;SDS011;920;48.944;9.148;2023-03-04T08:40:11;29.23;;;15.83;;
1839;SDS011;920;48.944;9.148;2023-03-04T08:42:38;28.57;;;16.07;;
1839;SDS011;920;48.944;9.148;2023-03-04T08:45:07;25.17;;;14.10;;
1839;SDS011;920;48.944;9.148;2023-03-04T08:47:34;26.13;;;15.10;;
1839;SDS011;920;48.944;9.148;2023-03-04T08:50:01;25.17;;;14.50;;
1839;SDS011;920;48.944;9.148;2023-03-04T08:52:28;23.77;;;13.73;;
1839;SDS011;920;48.944;9.148;2023-03-04T08:54:55;24.13;;;14.50;;
1839;SDS011;920;48.944;9.148;2023-03-04T08:57:22;26.97;;;15.80;;
1839;SDS011;920;48.944;9.148;2023-03-04T08:59:49;26.10;;;14.03;;
1839;SDS011;920;48.944;9.148;2023-03-04T09:02:17;28.00;;;16.33;;
1839;SDS011;920;48.944;9.148;2023-03-04T09:04:44;28.20;;;16.60;;
1839;SDS011;920;48.944;9.148;2023-03-04T09:07:10;23.80;;;13.67;;
1839;SDS011;920;48.944;9.148;2023-03-04T09:09:38;23.40;;;13.87;;
1839;SDS011;920;48.944;9.148;2023-03-04T09:12:05;25.47;;;15.40;;
1839;SDS011;920;48.944;9.148;2023-03-04T09:14:32;28.50;;;14.40;;
1839;SDS011;920;48.944;9.148;2023-03-04T09:17:00;23.40;;;15.10;;
1839;SDS011;920;48.944;9.148;2023-03-04T09:19:28;24.07;;;15.37;;
1839;SDS011;920;48.944;9.148;2023-03-04T09:21:55;22.63;;;13.53;;
1839;SDS011;920;48.944;9.148;2023-03-04T09:24:23;24.00;;;14.03;;
1839;SDS011;920;48.944;9.148;2023-03-04T09:26:51;28.13;;;15.73;;
1839;SDS011;920;48.944;9.148;2023-03-04T09:29:18;23.43;;;14.13;;
1839;SDS011;920;48.944;9.148;2023-03-04T09:31:45;25.00;;;14.27;;
1839;SDS011;920;48.944;9.148;2023-03-04T09:34:11;23.40;;;15.80;;
1839;SDS011;920;48.944;9.148;2023-03-04T09:36:40;24.80;;;15.53;;
1839;SDS011;920;48.944;9.148;2023-03-04T09:39:07;22.30;;;14.30;;
1839;SDS011;920;48.944;9.148;2023-03-04T09:41:35;22.23;;;14.73;;
1839;SDS011;920;48.944;9.148;2023-03-04T09:44:06;25.07;;;14.60;;
1839;SDS011;920;48.944;9.148;2023-03-04T09:46:39;26.07;;;15.27;;
1839;SDS011;920;48.944;9.148;2023-03-04T09:49:08;20.80;;;14.07;;
1839;SDS011;920;48.944;9.148;2023-03-04T09:51:42;23.77;;;14.57;;
1839;SDS011;920;48.944;9.148;2023-03-04T09:54:14;20.13;;;13.60;;
1839;SDS011;920;48.944;9.148;2023-03-04T09:56:46;24.90;;;14.90;;
1839;SDS011;920;48.944;9.148;2023-03-04T09:59:16;20.90;;;13.27;;
1839;SDS011;920;48.944;9.148;2023-03-04T10:01:50;22.50;;;14.60;;
1839;SDS011;920;48.944;9.148;2023-03-04T10:04:21;20.30;;;14.10;;
1839;SDS011;920;48.944;9.148;2023-03-04T10:06:56;19.70;;;13.20;;
1839;SDS011;920;48.944;9.148;2023-03-04T10:09:23;20.97;;;14.37;;
1839;SDS011;920;48.944;9.148;2023-03-04T10:11:54;20.87;;;12.97;;
1839;SDS011;920;48.944;9.148;2023-03-04T10:14:29;18.13;;;12.37;;
1839;SDS011;920;48.944;9.148;2023-03-04T10:16:59;17.67;;;13.17;;
1839;SDS011;920;48.944;9.148;2023-03-04T10:19:33;20.43;;;13.13;;
1839;SDS011;920;48.944;9.148;2023-03-04T10:22:13;19.00;;;13.40;;
1839;SDS011;920;48.944;9.148;2023-03-04T10:24:42;21.03;;;15.63;;
1839;SDS011;920;48.944;9.148;2023-03-04T10:27:11;22.10;;;16.07;;
1839;SDS011;920;48.944;9.148;2023-03-04T10:29:40;20.67;;;14.63;;
1839;SDS011;920;48.944;9.148;2023-03-04T10:32:10;22.73;;;15.27;;
1839;SDS011;920;48.944;9.148;2023-03-04T10:34:38;23.77;;;16.50;;
1839;SDS011;920;48.944;9.148;2023-03-04T10:37:05;21.50;;;15.97;;
1839;SDS011;920;48.944;9.148;2023-03-04T10:39:37;24.40;;;16.40;;
1839;SDS011;920;48.944;9.148;2023-03-04T10:42:05;22.30;;;15.10;;
1839;SDS011;920;48.944;9.148;2023-03-04T10:44:32;21.53;;;15.10;;
1839;SDS011;920;48.944;9.148;2023-03-04T10:47:00;24.37;;;16.80;;
1839;SDS011;920;48.944;9.148;2023-03-04T10:49:27;23.80;;;16.23;;
1839;SDS011;920;48.944;9.148;2023-03-04T10:52:00;25.23;;;16.47;;
1839;SDS011;920;48.944;9.148;2023-03-04T10:54:29;24.50;;;16.10;;
1839;SDS011;920;48.944;9.148;2023-03-04T10:56:59;23.70;;;16.23;;
1839;SDS011;920;48.944;9.148;2023-03-04T10:59:31;24.63;;;16.40;;
1839;SDS011;920;48.944;9.148;2023-03-04T11:02:01;24.70;;;17.07;;
1839;SDS011;920;48.944;9.148;2023-03-04T11:04:35;34.43;;;21.17;;
1839;SDS011;920;48.944;9.148;2023-03-04T11:07:06;25.27;;;17.23;;
1839;SDS011;920;48.944;9.148;2023-03-04T11:09:33;27.50;;;18.80;;
1839;SDS011;920;48.944;9.148;2023-03-04T11:12:03;26.73;;;18.20;;
1839;SDS011;920;48.944;9.148;2023-03-04T11:14:36;26.60;;;19.17;;
1839;SDS011;920;48.944;9.148;2023-03-04T11:17:15;29.47;;;20.03;;
1839;SDS011;920;48.944;9.148;2023-03-04T11:19:44;28.43;;;19.00;;
1839;SDS011;920;48.944;9.148;2023-03-04T11:22:14;26.43;;;18.63;;
1839;SDS011;920;48.944;9.148;2023-03-04T11:24:41;29.87;;;20.40;;
1839;SDS011;920;48.944;9.148;2023-03-04T11:27:12;34.67;;;22.60;;
1839;SDS011;920;48.944;9.148;2023-03-04T11:29:42;28.80;;;19.80;;
1839;SDS011;920;48.944;9.148;2023-03-04T11:32:12;27.40;;;18.80;;
1839;SDS011;920;48.944;9.148;2023-03-04T11:34:45;31.17;;;20.83;;
1839;SDS011;920;48.944;9.148;2023-03-04T11:37:15;29.00;;;20.63;;
1839;SDS011;920;48.944;9.148;2023-03-04T11:39:45;34.90;;;21.23;;
1839;SDS011;920;48.944;9.148;2023-03-04T11:42:19;33.93;;;21.10;;
1839;SDS011;920;48.944;9.148;2023-03-04T11:44:49;32.97;;;22.03;;
1839;SDS011;920;48.944;9.148;2023-03-04T11:47:37;35.13;;;21.03;;
1839;SDS011;920;48.944;9.148;2023-03-04T11:50:18;33.20;;;22.40;;
1839;SDS011;920;48.944;9.148;2023-03-04T11:52:56;33.40;;;21.87;;
1839;SDS011;920;48.944;9.148;2023-03-04T11:55:46;34.83;;;22.30;;
1839;SDS011;920;48.944;9.148;2023-03-04T12:01:28;39.03;;;23.73;;
1839;SDS011;920;48.944;9.148;2023-03-04T12:04:16;38.27;;;23.90;;
1839;SDS011;920;48.944;9.148;2023-03-04T12:06:54;38.07;;;22.80;;
1839;SDS011;920;48.944;9.148;2023-03-04T12:09:36;33.80;;;22.80;;
1839;SDS011;920;48.944;9.148;2023-03-04T12:12:13;37.07;;;23.03;;
1839;SDS011;920;48.944;9.148;2023-03-04T12:14:50;36.73;;;22.30;;
1839;SDS011;920;48.944;9.148;2023-03-04T12:17:29;34.03;;;22.30;;
1839;SDS011;920;48.944;9.148;2023-03-04T12:20:05;35.57;;;22.70;;
1839;SDS011;920;48.944;9.148;2023-03-04T12:22:51;35.83;;;22.20;;
1839;SDS011;920;48.944;9.148;2023-03-04T12:25:32;36.93;;;23.50;;
1839;SDS011;920;48.944;9.148;2023-03-04T12:28:08;37.63;;;23.10;;
1839;SDS011;920;48.944;9.148;2023-03-04T12:33:44;34.93;;;20.20;;
1839;SDS011;920;48.944;9.148;2023-03-04T12:36:20;35.37;;;22.20;;
1839;SDS011;920;48.944;9.148;2023-03-04T12:38:58;34.23;;;22.10;;
1839;SDS011;920;48.944;9.148;2023-03-04T12:41:33;30.80;;;19.70;;
1839;SDS011;920;48.944;9.148;2023-03-04T12:44:10;32.83;;;19.90;;
1839;SDS011;920;48.944;9.148;2023-03-04T12:46:45;35.80;;;21.83;;
1839;SDS011;920;48.944;9.148;2023-03-04T12:49:21;38.73;;;24.80;;
1839;SDS011;920;48.944;9.148;2023-03-04T12:52:10;31.60;;;20.07;;
1839;SDS011;920;48.944;9.148;2023-03-04T12:54:40;31.60;;;20.40;;
1839;SDS011;920;48.944;9.148;2023-03-04T12:57:10;33.67;;;21.90;;
1839;SDS011;920;48.944;9.148;2023-03-04T12:59:39;31.73;;;20.93;;
1839;SDS011;920;48.944;9.148;2023-03-04T13:08:04;32.20;;;20.53;;
1839;SDS011;920;48.944;9.148;2023-03-04T13:10:36;31.87;;;20.57;;
1839;SDS011;920;48.944;9.148;2023-03-04T13:13:03;26.27;;;17.90;;
1839;SDS011;920;48.944;9.148;2023-03-04T13:15:31;25.13;;;17.23;;
1839;SDS011;920;48.944;9.148;2023-03-04T13:18:01;27.40;;;17.80;;
1839;SDS011;920;48.944;9.148;2023-03-04T13:20:37;32.10;;;19.47;;
1839;SDS011;920;48.944;9.148;2023-03-04T13:23:18;28.07;;;19.47;;
1839;SDS011;920;48.944;9.148;2023-03-04T13:28:41;31.07;;;19.03;;
1839;SDS011;920;48.944;9.148;2023-03-04T13:31:12;30.90;;;19.67;;
1839;SDS011;920;48.944;9.148;2023-03-04T13:33:50;29.40;;;19.17;;
1839;SDS011;920;48.944;9.148;2023-03-04T13:36:31;28.27;;;18.30;;
1839;SDS011;920;48.944;9.148;2023-03-04T13:39:27;26.17;;;18.10;;
1839;SDS011;920;48.944;9.148;2023-03-04T13:42:00;26.90;;;19.10;;
1839;SDS011;920;48.944;9.148;2023-03-04T13:50:23;27.23;;;17.70;;
1839;SDS011;920;48.944;9.148;2023-03-04T13:52:57;26.00;;;17.27;;
1839;SDS011;920;48.944;9.148;2023-03-04T13:55:33;30.40;;;18.30;;
1839;SDS011;920;48.944;9.148;2023-03-04T13:58:01;28.30;;;18.00;;
1839;SDS011;920;48.944;9.148;2023-03-04T14:00:44;26.37;;;17.00;;
1839;SDS011;920;48.944;9.148;2023-03-04T14:03:13;28.47;;;19.10;;
1839;SDS011;920;48.944;9.148;2023-03-04T14:05:47;26.47;;;16.80;;
1839;SDS011;920;48.944;9.148;2023-03-04T14:08:17;27.43;;;18.27;;
1839;SDS011;920;48.944;9.148;2023-03-04T14:10:47;29.17;;;17.10;;
1839;SDS011;920;48.944;9.148;2023-03-04T14:13:20;27.67;;;17.67;;
1839;SDS011;920;48.944;9.148;2023-03-04T14:15:52;30.10;;;18.20;;
1839;SDS011;920;48.944;9.148;2023-03-04T14:18:20;26.80;;;17.30;;
1839;SDS011;920;48.944;9.148;2023-03-04T14:20:50;25.97;;;17.80;;
1839;SDS011;920;48.944;9.148;2023-03-04T14:23:23;25.43;;;16.73;;
1839;SDS011;920;48.944;9.148;2023-03-04T14:26:01;30.83;;;17.80;;
1839;SDS011;920;48.944;9.148;2023-03-04T14:28:29;28.50;;;17.40;;
1839;SDS011;920;48.944;9.148;2023-03-04T14:30:56;29.37;;;19.73;;
1839;SDS011;920;48.944;9.148;2023-03-04T14:33:24;27.10;;;16.70;;
1839;SDS011;920;48.944;9.148;2023-03-04T14:35:53;27.80;;;16.63;;
1839;SDS011;920;48.944;9.148;2023-03-04T14:38:22;27.23;;;17.30;;
1839;SDS011;920;48.944;9.148;2023-03-04T14:40:51;26.30;;;17.43;;
1839;SDS011;920;48.944;9.148;2023-03-04T14:43:19;26.40;;;16.90;;
1839;SDS011;920;48.944;9.148;2023-03-04T14:45:47;26.30;;;18.00;;
1839;SDS011;920;48.944;9.148;2023-03-04T14:48:19;26.00;;;17.60;;
1839;SDS011;920;48.944;9.148;2023-03-04T14:50:48;30.97;;;18.63;;
1839;SDS011;920;48.944;9.148;2023-03-04T14:53:18;28.60;;;18.20;;
1839;SDS011;920;48.944;9.148;2023-03-04T14:55:57;25.67;;;16.70;;
1839;SDS011;920;48.944;9.148;2023-03-04T14:58:25;26.60;;;17.40;;
1839;SDS011;920;48.944;9.148;2023-03-04T15:01:06;25.53;;;15.70;;
1839;SDS011;920;48.944;9.148;2023-03-04T15:03:39;23.27;;;15.73;;
1839;SDS011;920;48.944;9.148;2023-03-04T15:11:45;26.37;;;16.23;;
1839;SDS011;920;48.944;9.148;2023-03-04T15:17:18;31.00;;;16.57;;
1839;SDS011;920;48.944;9.148;2023-03-04T15:19:56;24.23;;;15.37;;
1839;SDS011;920;48.944;9.148;2023-03-04T15:22:27;25.40;;;15.73;;
1839;SDS011;920;48.944;9.148;2023-03-04T15:24:54;24.87;;;15.10;;
1839;SDS011;920;48.944;9.148;2023-03-04T15:27:22;28.70;;;16.50;;
1839;SDS011;920;48.944;9.148;2023-03-04T15:29:50;23.63;;;14.90;;
1839;SDS011;920;48.944;9.148;2023-03-04T15:32:20;24.70;;;16.60;;
1839;SDS011;920;48.944;9.148;2023-03-04T15:34:48;22.40;;;14.80;;
1839;SDS011;920;48.944;9.148;2023-03-04T15:37:16;25.27;;;15.37;;
1839;SDS011;920;48.944;9.148;2023-03-04T15:39:45;25.00;;;14.67;;
1839;SDS011;920;48.944;9.148;2023-03-04T15:42:12;25.00;;;15.80;;